Time;durP1;ratioP1;P1;durP2;ratioP2;P2;SDS_P1;SDS_P2;PMS_P1;PMS_P2;Temp;Humidity;BMP_temperature;BMP_pressure;BME280_temperature;BME280_humidity;BME280_pressure;Samples;Min_cycle;Max_cycle;Signal;HPM_P1;HPM_P2
2024/01/17 00:00:09;;;;;;;19.63;8.82;;;;;;;-2.31;65.47;91570.88;2047794;70;20151;-79
2024/01/17 00:02:38;;;;;;;23.23;9.02;;;;;;;-2.20;64.94;91562.22;2049443;70;20201;-78
2024/01/17 00:05:04;;;;;;;17.95;8.68;;;;;;;-2.17;64.97;91560.34;2050173;70;20682;-79
2024/01/17 00:07:30;;;;;;;14.38;7.47;;;;;;;-1.99;64.70;91550.19;2048717;70;20267;-80
2024/01/17 00:09:56;;;;;;;12.65;6.30;;;;;;;-1.90;64.25;91535.78;2048289;70;20150;-79
2024/01/17 00:12:21;;;;;;;10.40;5.22;;;;;;;-1.81;63.25;91521.41;2044603;70;20514;-80
2024/01/17 00:14:48;;;;;;;8.70;4.03;;;;;;;-1.75;62.61;91510.88;2048124;70;20170;-80
2024/01/17 00:17:14;;;;;;;13.70;6.40;;;;;;;-1.84;63.34;91520.47;2048050;70;20539;-81
2024/01/17 00:19:40;;;;;;;17.73;6.32;;;;;;;-2.08;64.73;91518.41;2047713;70;20614;-81
2024/01/17 00:22:08;;;;;;;12.80;6.15;;;;;;;-1.85;63.88;91499.72;2047665;70;20256;-80
2024/01/17 00:24:34;;;;;;;12.63;6.70;;;;;;;-1.82;63.97;91470.28;2047503;70;20507;-80
2024/01/17 00:26:59;;;;;;;15.10;6.47;;;;;;;-1.71;64.10;91505.72;2044697;70;20213;-80
2024/01/17 00:29:25;;;;;;;12.82;6.53;;;;;;;-1.70;64.49;91506.44;2048202;70;20240;-81
2024/01/17 00:31:51;;;;;;;13.23;6.40;;;;;;;-1.89;64.52;91493.13;2047627;70;20138;-81
2024/01/17 00:34:17;;;;;;;11.80;6.45;;;;;;;-1.78;64.74;91517.53;2048116;70;20150;-79
2024/01/17 00:36:43;;;;;;;13.63;6.78;;;;;;;-2.26;66.49;91509.28;2047521;70;20263;-81
2024/01/17 00:39:09;;;;;;;17.27;6.72;;;;;;;-2.02;66.39;91518.91;2048085;70;20182;-80
2024/01/17 00:41:34;;;;;;;15.68;6.80;;;;;;;-1.86;65.61;91506.53;2047854;70;20155;-79
2024/01/17 00:44:04;;;;;;;16.10;6.65;;;;;;;-1.77;65.13;91504.47;2047957;70;20260;-80
2024/01/17 00:46:31;;;;;;;17.08;6.72;;;;;;;-1.69;65.02;91494.13;2046954;70;20679;-80
2024/01/17 00:48:57;;;;;;;15.38;6.72;;;;;;;-1.64;65.12;91480.09;2047675;70;20654;-80
2024/01/17 00:51:24;;;;;;;13.27;6.38;;;;;;;-2.19;67.12;91480.22;2047116;70;20139;-80
2024/01/17 00:53:51;;;;;;;11.43;5.93;;;;;;;-1.94;66.14;91491.31;2047555;70;20151;-80
2024/01/17 00:56:17;;;;;;;15.85;7.03;;;;;;;-1.85;65.99;91472.13;2047391;70;20629;-80
2024/01/17 00:58:43;;;;;;;14.55;6.40;;;;;;;-1.82;66.26;91468.25;2047150;70;20159;-80
2024/01/17 01:01:09;;;;;;;15.73;6.20;;;;;;;-1.78;65.56;91475.41;2047781;70;20186;-80
2024/01/17 01:03:34;;;;;;;13.77;6.03;;;;;;;-1.91;65.86;91474.38;2046956;70;20142;-80
2024/01/17 01:06:00;;;;;;;11.60;5.55;;;;;;;-2.01;65.20;91459.00;2047542;70;20145;-80
2024/01/17 01:08:26;;;;;;;11.82;6.05;;;;;;;-1.75;64.75;91463.25;2046973;70;20165;-80
2024/01/17 01:10:52;;;;;;;13.05;6.60;;;;;;;-1.98;66.14;91474.41;2046950;70;20164;-80
2024/01/17 01:13:18;;;;;;;11.98;6.30;;;;;;;-2.17;67.04;91470.09;2047017;70;20178;-80
2024/01/17 01:15:44;;;;;;;15.20;6.63;;;;;;;-1.83;65.72;91457.78;2047687;70;20142;-80
2024/01/17 01:18:11;;;;;;;15.23;6.68;;;;;;;-2.01;66.82;91473.53;2048063;70;20525;-81
2024/01/17 01:20:37;;;;;;;14.25;6.75;;;;;;;-2.10;67.12;91463.81;2047043;70;20154;-80
2024/01/17 01:23:02;;;;;;;15.77;6.57;;;;;;;-2.24;67.31;91481.91;2047340;70;20526;-82
2024/01/17 01:25:29;;;;;;;15.75;7.30;;;;;;;-1.98;66.49;91475.13;2047631;70;20585;-83
2024/01/17 01:27:55;;;;;;;12.27;5.60;;;;;;;-1.78;66.21;91476.16;2047309;70;20134;-80
2024/01/17 01:30:21;;;;;;;11.35;5.43;;;;;;;-1.69;65.54;91469.28;2044491;70;20555;-80
2024/01/17 01:32:46;;;;;;;14.40;5.70;;;;;;;-1.93;65.15;91487.25;2044552;70;20155;-80
2024/01/17 01:35:12;;;;;;;14.45;5.72;;;;;;;-1.98;65.40;91472.38;2047704;70;20162;-81
2024/01/17 01:37:38;;;;;;;13.80;6.35;;;;;;;-1.86;65.00;91459.63;2047872;70;20248;-82
2024/01/17 01:40:04;;;;;;;11.65;5.60;;;;;;;-1.71;64.68;91458.06;2047088;70;20142;-81
2024/01/17 01:42:30;;;;;;;10.80;5.80;;;;;;;-1.88;64.87;91478.03;2046834;70;20151;-80
2024/01/17 01:44:56;;;;;;;15.15;6.43;;;;;;;-1.78;65.03;91461.63;2044272;70;20259;-79
2024/01/17 01:47:22;;;;;;;15.90;5.90;;;;;;;-1.82;64.63;91464.78;2047651;70;20150;-80
2024/01/17 01:49:48;;;;;;;11.93;5.97;;;;;;;-2.08;65.69;91469.50;2048082;70;20151;-80
2024/01/17 01:52:14;;;;;;;14.60;6.35;;;;;;;-2.47;66.68;91464.72;2047811;70;20293;-79
2024/01/17 01:54:40;;;;;;;15.70;6.70;;;;;;;-2.12;66.71;91471.16;2047782;70;20666;-82
2024/01/17 01:57:08;;;;;;;18.70;6.95;;;;;;;-1.96;66.15;91456.03;2047535;70;20151;-80
2024/01/17 01:59:34;;;;;;;13.02;7.15;;;;;;;-2.03;66.12;91458.81;2047840;70;20543;-78
2024/01/17 02:02:01;;;;;;;17.42;6.97;;;;;;;-2.16;66.90;91454.28;2047473;70;20145;-81
2024/01/17 02:04:27;;;;;;;15.85;6.50;;;;;;;-1.96;65.85;91438.75;2047997;70;20231;-80
2024/01/17 02:06:54;;;;;;;12.00;6.13;;;;;;;-1.93;65.61;91434.84;2047318;70;20143;-78
2024/01/17 02:09:20;;;;;;;14.25;6.40;;;;;;;-1.78;65.33;91432.00;2048043;70;20606;-79
2024/01/17 02:11:47;;;;;;;12.20;6.20;;;;;;;-1.73;65.41;91425.53;2047164;70;20511;-80
2024/01/17 02:14:13;;;;;;;10.57;5.70;;;;;;;-1.72;64.81;91415.22;2047907;70;20146;-81
2024/01/17 02:16:40;;;;;;;12.77;6.00;;;;;;;-2.10;66.45;91422.47;2047369;70;20147;-82
2024/01/17 02:19:10;;;;;;;16.92;6.53;;;;;;;-1.83;65.36;91411.63;2047856;70;20143;-80
2024/01/17 02:21:35;;;;;;;11.45;5.93;;;;;;;-1.68;64.93;91396.25;2047576;70;20143;-79
2024/01/17 02:24:28;;;;;;;18.08;6.50;;;;;;;-1.66;65.41;91388.13;2047391;70;20583;-79
2024/01/17 02:26:54;;;;;;;16.92;7.10;;;;;;;-1.99;66.16;91381.94;2047293;70;20663;-80
2024/01/17 02:29:21;;;;;;;14.35;6.35;;;;;;;-1.77;65.31;91356.22;2047417;70;20169;-78
2024/01/17 02:31:47;;;;;;;12.77;6.15;;;;;;;-1.69;65.18;91381.00;2047351;70;20154;-79
2024/01/17 02:34:13;;;;;;;14.40;6.50;;;;;;;-2.07;66.23;91376.47;2047406;70;20131;-79
2024/01/17 02:36:40;;;;;;;14.05;6.53;;;;;;;-1.87;66.48;91372.66;2048054;70;20182;-83
2024/01/17 02:39:06;;;;;;;19.17;6.45;;;;;;;-1.75;65.90;91359.13;2047467;70;20642;-80
2024/01/17 02:41:31;;;;;;;14.27;6.45;;;;;;;-1.72;65.78;91365.56;2047405;70;20234;-80
2024/01/17 02:43:57;;;;;;;14.50;6.28;;;;;;;-1.69;65.41;91362.41;2047378;70;20146;-82
2024/01/17 02:46:27;;;;;;;12.23;6.00;;;;;;;-1.70;65.64;91371.25;2047980;70;20159;-81
2024/01/17 02:48:52;;;;;;;13.40;6.38;;;;;;;-1.75;65.80;91370.16;2047591;70;20234;-83
2024/01/17 02:51:18;;;;;;;14.85;6.05;;;;;;;-1.78;65.92;91360.28;2044647;70;20171;-82
2024/01/17 02:53:43;;;;;;;14.07;5.80;;;;;;;-2.00;66.65;91350.88;2048430;70;20210;-82
2024/01/17 02:56:09;;;;;;;14.27;6.25;;;;;;;-1.79;66.28;91350.53;2047903;70;20135;-81
2024/01/17 02:58:35;;;;;;;14.57;6.15;;;;;;;-1.89;66.53;91331.09;2048253;70;20237;-82
2024/01/17 03:01:01;;;;;;;16.85;5.90;;;;;;;-1.73;66.26;91340.00;2044909;70;20162;-84
2024/01/17 03:03:27;;;;;;;12.38;5.60;;;;;;;-1.85;66.53;91345.22;2047373;70;20246;-81
2024/01/17 03:05:52;;;;;;;13.63;5.63;;;;;;;-1.92;67.11;91337.03;2048076;70;20225;-83
2024/01/17 03:08:19;;;;;;;12.05;5.78;;;;;;;-1.80;66.66;91336.00;2047912;70;20241;-80
2024/01/17 03:10:45;;;;;;;13.10;6.13;;;;;;;-1.80;66.47;91327.72;2047438;70;20154;-81
2024/01/17 03:13:13;;;;;;;13.75;5.93;;;;;;;-1.72;67.01;91344.22;2047972;70;20235;-80
2024/01/17 03:15:39;;;;;;;12.32;6.03;;;;;;;-1.73;66.57;91333.75;2048595;70;20277;-84
2024/01/17 03:18:08;;;;;;;14.02;6.20;;;;;;;-1.65;66.05;91342.69;2047759;70;20655;-83
2024/01/17 03:20:34;;;;;;;12.48;5.70;;;;;;;-1.69;66.31;91331.34;2048352;70;20179;-85
2024/01/17 03:23:00;;;;;;;10.60;5.80;;;;;;;-1.71;65.76;91333.91;2048483;70;20159;-85
2024/01/17 03:25:26;;;;;;;13.45;5.47;;;;;;;-1.71;66.60;91344.94;2048451;70;20622;-81
2024/01/17 03:27:51;;;;;;;11.05;5.20;;;;;;;-1.81;66.78;91323.50;2048963;70;20205;-81
2024/01/17 03:30:17;;;;;;;12.85;5.80;;;;;;;-1.76;67.40;91332.84;2047899;70;20138;-83
2024/01/17 03:32:43;;;;;;;12.88;5.80;;;;;;;-2.02;68.66;91334.16;2048060;70;20143;-81
2024/01/17 03:35:09;;;;;;;15.18;5.88;;;;;;;-2.03;68.93;91337.47;2048034;70;20174;-84
2024/01/17 03:37:36;;;;;;;13.07;5.60;;;;;;;-2.10;68.84;91320.44;2047422;70;20190;-81
2024/01/17 03:40:01;;;;;;;14.60;6.05;;;;;;;-1.80;68.11;91315.97;2048363;70;20242;-83
2024/01/17 03:42:27;;;;;;;14.95;5.78;;;;;;;-1.78;67.98;91298.84;2047665;70;20219;-84
2024/01/17 03:44:52;;;;;;;15.27;5.85;;;;;;;-1.65;67.00;91307.56;2048854;70;20230;-81
2024/01/17 03:47:18;;;;;;;16.20;5.97;;;;;;;-1.69;66.95;91298.94;2048170;70;20241;-83
2024/01/17 03:49:44;;;;;;;15.35;6.40;;;;;;;-1.70;67.23;91313.28;2048263;70;20174;-84
2024/01/17 03:52:09;;;;;;;11.40;5.55;;;;;;;-1.70;67.65;91300.22;2048511;70;20185;-82
2024/01/17 03:54:36;;;;;;;12.52;5.55;;;;;;;-1.96;68.45;91298.81;2045264;70;20147;-85
2024/01/17 03:57:03;;;;;;;13.95;5.70;;;;;;;-1.96;68.24;91290.53;2048197;70;20167;-84
2024/01/17 03:59:28;;;;;;;10.35;5.32;;;;;;;-1.70;68.18;91293.97;2045082;70;20168;-83
2024/01/17 04:01:54;;;;;;;8.32;4.07;;;;;;;-1.62;67.17;91287.09;2048268;70;20230;-84
2024/01/17 04:04:20;;;;;;;4.63;2.63;;;;;;;-1.54;66.64;91276.72;2048443;70;20147;-81
2024/01/17 04:06:45;;;;;;;10.20;5.15;;;;;;;-1.62;66.49;91287.09;2048310;70;20155;-84
2024/01/17 04:09:11;;;;;;;13.15;5.50;;;;;;;-1.59;67.08;91283.22;2047791;70;20181;-80
2024/01/17 04:11:37;;;;;;;10.95;5.40;;;;;;;-1.60;67.57;91278.28;2047717;70;20222;-83
2024/01/17 04:14:03;;;;;;;9.38;5.00;;;;;;;-1.55;67.78;91269.75;2047718;70;20143;-81
2024/01/17 04:16:30;;;;;;;11.95;5.40;;;;;;;-1.56;67.93;91273.81;2047653;70;20512;-82
2024/01/17 04:18:55;;;;;;;11.05;5.13;;;;;;;-1.46;66.59;91267.66;2048248;70;20147;-84
2024/01/17 04:21:21;;;;;;;9.75;4.53;;;;;;;-1.33;65.38;91273.56;2044992;70;20194;-83
2024/01/17 04:23:48;;;;;;;14.00;5.28;;;;;;;-1.53;67.27;91280.22;2045003;70;20583;-85
2024/01/17 04:26:24;;;;;;;12.85;5.10;;;;;;;-1.24;66.35;91274.19;2047607;70;20155;-84
2024/01/17 04:28:51;;;;;;;10.25;4.70;;;;;;;-1.23;66.08;91262.59;2048321;70;20174;-84
2024/01/17 04:31:24;;;;;;;10.63;5.05;;;;;;;-1.38;66.92;91282.06;2047829;70;20139;-82
2024/01/17 04:33:52;;;;;;;12.48;4.30;;;;;;;-1.35;66.99;91265.13;2048187;70;20246;-84
2024/01/17 04:36:18;;;;;;;15.65;6.32;;;;;;;-1.25;67.23;91267.22;2048086;70;20568;-82
2024/01/17 04:38:45;;;;;;;25.45;9.43;;;;;;;-1.26;65.61;91263.72;2048131;70;20531;-82
2024/01/17 04:41:11;;;;;;;18.92;8.50;;;;;;;-1.18;66.30;91260.88;2048046;70;20594;-81
2024/01/17 04:43:40;;;;;;;15.05;6.78;;;;;;;-1.31;67.16;91257.16;2048033;70;20210;-81
2024/01/17 04:46:05;;;;;;;15.95;6.55;;;;;;;-1.24;67.37;91265.91;2044886;70;20154;-81
2024/01/17 04:48:31;;;;;;;22.35;8.98;;;;;;;-1.16;66.67;91261.03;2048235;70;20145;-85
2024/01/17 04:50:58;;;;;;;16.25;6.80;;;;;;;-1.17;67.25;91262.34;2047604;70;20205;-80
2024/01/17 04:53:27;;;;;;;16.52;7.00;;;;;;;-1.18;67.17;91260.88;2048134;70;20159;-81
2024/01/17 04:55:53;;;;;;;16.83;7.68;;;;;;;-1.37;67.75;91237.34;2047979;70;20611;-82
2024/01/17 04:58:19;;;;;;;21.10;8.38;;;;;;;-1.26;67.52;91225.06;2048076;70;20166;-82
2024/01/17 05:00:48;;;;;;;21.00;9.57;;;;;;;-1.03;67.34;91238.59;2047599;70;20595;-82
2024/01/17 05:03:15;;;;;;;13.60;6.35;;;;;;;-0.95;67.45;91221.94;2048063;70;20578;-80
2024/01/17 05:05:43;;;;;;;26.25;9.88;;;;;;;-1.21;67.30;91231.66;2047798;70;20269;-83
2024/01/17 05:08:11;;;;;;;16.17;7.95;;;;;;;-1.19;67.90;91243.59;2048152;70;20257;-82
2024/01/17 05:10:41;;;;;;;19.33;8.93;;;;;;;-0.97;67.34;91238.34;2048041;70;20154;-83
2024/01/17 05:13:06;;;;;;;20.73;9.15;;;;;;;-0.88;66.54;91235.63;2044811;70;20142;-81
2024/01/17 05:15:32;;;;;;;22.63;9.70;;;;;;;-0.79;66.30;91217.66;2048113;70;20151;-83
2024/01/17 05:17:58;;;;;;;25.48;11.48;;;;;;;-0.95;66.70;91224.72;2044753;70;20138;-84
2024/01/17 05:20:24;;;;;;;29.27;12.25;;;;;;;-0.87;66.29;91211.50;2047564;70;20496;-80
2024/01/17 05:22:49;;;;;;;28.50;11.77;;;;;;;-0.71;65.54;91217.56;2047974;70;20147;-80
2024/01/17 05:25:15;;;;;;;15.77;6.18;;;;;;;-0.69;64.80;91217.72;2044690;70;20621;-80
2024/01/17 05:27:41;;;;;;;50.60;21.17;;;;;;;-0.80;64.76;91216.94;2047863;70;20153;-80
2024/01/17 05:30:10;;;;;;;36.47;15.73;;;;;;;-0.84;65.57;91210.34;2048148;70;20595;-81
2024/01/17 05:32:38;;;;;;;10.55;4.80;;;;;;;-0.80;65.19;91194.09;2048133;70;20165;-81
2024/01/17 05:35:04;;;;;;;13.65;6.78;;;;;;;-0.72;64.04;91194.72;2048015;70;20170;-81
2024/01/17 05:37:31;;;;;;;9.07;3.47;;;;;;;-0.57;64.03;91191.00;2044797;70;20150;-81
2024/01/17 05:39:57;;;;;;;5.43;2.38;;;;;;;-0.48;63.50;91186.81;2047437;70;20135;-80
2024/01/17 05:42:22;;;;;;;5.25;2.40;;;;;;;-0.46;63.67;91182.16;2047747;70;20163;-81
2024/01/17 05:44:48;;;;;;;8.93;2.67;;;;;;;-0.39;62.99;91186.84;2048083;70;20489;-80
2024/01/17 05:47:15;;;;;;;6.57;2.90;;;;;;;-0.48;62.37;91173.00;2048099;70;20595;-82
2024/01/17 05:49:41;;;;;;;9.27;4.97;;;;;;;-0.58;63.76;91182.00;2047519;70;20150;-81
2024/01/17 05:52:06;;;;;;;9.25;4.55;;;;;;;-0.39;63.33;91172.31;2047870;70;20184;-82
2024/01/17 05:54:32;;;;;;;9.60;4.72;;;;;;;-0.33;63.62;91167.22;2048090;70;20143;-81
2024/01/17 05:56:59;;;;;;;10.48;4.93;;;;;;;-0.61;64.76;91161.03;2047832;70;20252;-81
2024/01/17 05:59:24;;;;;;;14.93;6.57;;;;;;;-0.53;64.05;91163.66;2047452;70;20158;-82
2024/01/17 06:01:50;;;;;;;11.02;5.50;;;;;;;-0.53;64.14;91156.09;2047385;70;20172;-81
2024/01/17 06:04:16;;;;;;;14.85;6.72;;;;;;;-0.45;63.57;91133.88;2047847;70;20527;-85
2024/01/17 06:06:42;;;;;;;10.65;3.13;;;;;;;-0.37;63.23;91148.28;2047625;70;20145;-84
2024/01/17 06:09:10;;;;;;;20.35;6.53;;;;;;;-0.27;62.32;91140.03;2048457;70;20147;-80
2024/01/17 06:11:37;;;;;;;8.02;3.63;;;;;;;-0.26;60.14;91138.72;2045161;70;20166;-82
2024/01/17 06:14:03;;;;;;;19.27;9.98;;;;;;;-0.68;63.16;91159.13;2048458;70;20153;-81
2024/01/17 06:16:30;;;;;;;15.82;7.47;;;;;;;-0.52;63.61;91156.84;2048505;70;20147;-82
2024/01/17 06:18:59;;;;;;;17.52;7.47;;;;;;;-0.27;63.43;91153.88;2048420;70;20145;-83
2024/01/17 06:21:25;;;;;;;16.10;7.50;;;;;;;-0.17;63.15;91171.22;2047946;70;20177;-80
2024/01/17 06:23:51;;;;;;;14.48;7.03;;;;;;;-0.14;63.31;91156.19;2048531;70;20179;-80
2024/01/17 06:26:17;;;;;;;13.23;6.15;;;;;;;-0.32;64.80;91146.56;2047722;70;20139;-81
2024/01/17 06:28:43;;;;;;;12.93;6.25;;;;;;;-0.12;63.89;91167.44;2048446;70;20166;-80
2024/01/17 06:31:08;;;;;;;10.68;5.05;;;;;;;-0.29;64.81;91162.72;2047904;70;20135;-82
2024/01/17 06:33:34;;;;;;;11.30;5.10;;;;;;;-0.30;65.69;91160.53;2048388;70;20635;-82
2024/01/17 06:35:59;;;;;;;12.45;6.00;;;;;;;-0.16;65.33;91166.41;2048427;70;20640;-80
2024/01/17 06:38:25;;;;;;;11.93;6.32;;;;;;;-0.10;64.96;91172.38;2048458;70;20173;-80
2024/01/17 06:40:51;;;;;;;17.75;6.10;;;;;;;-0.12;65.46;91175.00;2048389;70;20610;-81
2024/01/17 06:43:18;;;;;;;13.85;5.75;;;;;;;0.00;65.07;91184.22;2048366;70;20135;-81
2024/01/17 06:45:43;;;;;;;13.73;5.28;;;;;;;0.04;64.19;91192.78;2047837;70;20229;-83
2024/01/17 06:48:09;;;;;;;14.02;6.15;;;;;;;-0.04;64.91;91204.00;2048586;70;20621;-86
2024/01/17 06:50:35;;;;;;;15.88;6.68;;;;;;;-0.05;64.80;91199.75;2048649;70;20143;-84
2024/01/17 06:53:00;;;;;;;20.83;7.93;;;;;;;-0.27;65.63;91207.13;2047763;70;20513;-82
2024/01/17 06:55:26;;;;;;;15.77;7.35;;;;;;;-0.17;65.56;91206.44;2048255;70;20146;-81
2024/01/17 06:57:51;;;;;;;17.50;7.75;;;;;;;-0.16;66.30;91219.69;2047910;70;20151;-80
2024/01/17 07:00:20;;;;;;;19.85;7.60;;;;;;;-0.23;66.55;91225.31;2047809;70;20238;-80
2024/01/17 07:02:45;;;;;;;19.20;6.40;;;;;;;-0.52;68.09;91228.72;2048536;70;20153;-80
2024/01/17 07:05:12;;;;;;;16.30;6.60;;;;;;;-0.40;67.96;91229.63;2048371;70;20130;-80
2024/01/17 07:07:38;;;;;;;15.10;6.63;;;;;;;-0.16;67.04;91236.28;2048360;70;20143;-80
2024/01/17 07:10:05;;;;;;;16.80;7.13;;;;;;;-0.07;66.81;91237.63;2048337;70;20147;-80
2024/01/17 07:12:31;;;;;;;14.77;7.03;;;;;;;-0.08;66.83;91239.66;2044940;70;20143;-81
2024/01/17 07:14:57;;;;;;;19.17;7.57;;;;;;;-0.15;67.46;91237.00;2045022;70;20613;-84
2024/01/17 07:17:24;;;;;;;28.90;9.80;;;;;;;-0.33;67.50;91231.53;2047956;70;20141;-82
2024/01/17 07:19:49;;;;;;;18.00;7.47;;;;;;;-0.11;67.21;91226.97;2045007;70;20184;-81
2024/01/17 07:22:15;;;;;;;18.25;7.60;;;;;;;-0.45;68.15;91227.88;2047792;70;20596;-83
2024/01/17 07:24:43;;;;;;;25.15;10.73;;;;;;;-0.49;68.97;91238.63;2048407;70;20225;-84
2024/01/17 07:27:09;;;;;;;22.65;9.93;;;;;;;-0.46;68.41;91231.91;2047813;70;20182;-82
2024/01/17 07:29:36;;;;;;;24.27;12.05;;;;;;;-0.43;68.45;91238.34;2047819;70;20542;-83
2024/01/17 07:32:04;;;;;;;19.23;10.00;;;;;;;-0.72;68.85;91225.13;2048421;70;20139;-81
2024/01/17 07:34:30;;;;;;;25.88;10.05;;;;;;;-0.15;66.99;91229.44;2048580;70;20260;-82
2024/01/17 07:36:56;;;;;;;20.88;9.30;;;;;;;-0.11;66.04;91215.19;2047753;70;20595;-80
2024/01/17 07:39:22;;;;;;;22.05;10.57;;;;;;;0.09;66.62;91216.69;2048213;70;20170;-80
2024/01/17 07:41:50;;;;;;;24.60;10.82;;;;;;;0.09;66.91;91202.13;2048137;70;20164;-81
2024/01/17 07:44:15;;;;;;;34.03;13.20;;;;;;;-0.23;68.49;91203.91;2048193;70;20150;-80
2024/01/17 07:46:41;;;;;;;20.23;11.13;;;;;;;-0.60;70.37;91212.22;2048337;70;20503;-81
2024/01/17 07:49:07;;;;;;;20.05;10.48;;;;;;;-0.24;69.72;91201.75;2048499;70;20142;-80
2024/01/17 07:51:33;;;;;;;24.85;10.55;;;;;;;0.05;68.63;91204.59;2048444;70;20654;-83
2024/01/17 07:53:58;;;;;;;21.40;10.60;;;;;;;0.14;68.41;91190.78;2047594;70;20206;-80
2024/01/17 07:56:24;;;;;;;19.13;10.10;;;;;;;0.23;68.08;91192.84;2047753;70;20165;-82
2024/01/17 07:58:50;;;;;;;19.52;9.60;;;;;;;0.31;67.53;91209.28;2048029;70;20154;-80
2024/01/17 08:01:16;;;;;;;16.65;8.57;;;;;;;-0.02;69.21;91195.13;2048726;70;20233;-79
2024/01/17 08:03:42;;;;;;;16.48;9.27;;;;;;;-0.64;72.92;91187.06;2048411;70;20607;-81
2024/01/17 08:06:09;;;;;;;12.38;6.80;;;;;;;-0.42;73.19;91190.75;2048490;70;20210;-82
2024/01/17 08:08:35;;;;;;;19.45;8.48;;;;;;;-0.08;72.03;91192.63;2045074;70;20242;-80
2024/01/17 08:11:02;;;;;;;16.90;7.25;;;;;;;0.20;71.43;91196.03;2048313;70;20150;-80
2024/01/17 08:13:28;;;;;;;16.05;8.38;;;;;;;0.29;68.85;91194.59;2047974;70;20143;-79
2024/01/17 08:15:54;;;;;;;23.63;11.23;;;;;;;0.38;69.71;91186.28;2048300;70;20150;-81
2024/01/17 08:18:20;;;;;;;38.20;15.88;;;;;;;0.49;70.08;91184.97;2047684;70;20174;-82
2024/01/17 08:20:46;;;;;;;29.08;13.02;;;;;;;0.38;69.83;91191.84;2045059;70;20209;-79
2024/01/17 08:23:12;;;;;;;28.40;12.75;;;;;;;0.42;70.72;91178.28;2048327;70;20606;-79
2024/01/17 08:25:38;;;;;;;26.30;12.43;;;;;;;0.50;68.48;91158.75;2048121;70;20142;-80
2024/01/17 08:28:04;;;;;;;23.15;11.23;;;;;;;0.74;69.53;91162.53;2047643;70;20158;-80
2024/01/17 08:30:30;;;;;;;18.48;9.27;;;;;;;0.72;69.74;91176.94;2048199;70;20178;-80
2024/01/17 08:32:55;;;;;;;20.83;9.25;;;;;;;0.70;69.49;91160.19;2048367;70;20146;-82
2024/01/17 08:35:21;;;;;;;13.98;7.07;;;;;;;0.45;71.58;91168.06;2048140;70;20155;-80
2024/01/17 08:37:46;;;;;;;48.67;18.42;;;;;;;0.50;72.09;91150.44;2047992;70;20163;-80
2024/01/17 08:40:13;;;;;;;40.10;15.13;;;;;;;0.83;71.19;91163.84;2048251;70;20147;-79
2024/01/17 08:42:39;;;;;;;40.22;14.57;;;;;;;0.94;69.42;91157.69;2047997;70;20258;-79
2024/01/17 08:45:06;;;;;;;23.48;9.85;;;;;;;0.94;69.29;91157.69;2047609;70;20295;-77
2024/01/17 08:47:32;;;;;;;14.15;7.18;;;;;;;1.00;69.56;91144.97;2048172;70;20155;-78
2024/01/17 08:50:00;;;;;;;15.68;6.07;;;;;;;1.06;69.52;91136.38;2047588;70;20164;-79
2024/01/17 08:52:26;;;;;;;13.00;6.45;;;;;;;1.13;68.45;91132.69;2048152;70;20183;-77
2024/01/17 08:54:54;;;;;;;13.82;6.68;;;;;;;1.07;68.61;91126.03;2048127;70;20151;-77
2024/01/17 08:57:20;;;;;;;20.85;12.20;;;;;;;1.27;69.36;91119.81;2047919;70;20176;-80
2024/01/17 08:59:46;;;;;;;15.88;7.80;;;;;;;1.09;70.43;91126.88;2048143;70;20230;-83
2024/01/17 09:02:12;;;;;;;24.15;11.55;;;;;;;1.09;70.41;91106.75;2048205;70;20229;-78
2024/01/17 09:04:40;;;;;;;28.27;12.82;;;;;;;1.31;68.66;91097.19;2048159;70;20623;-82
2024/01/17 09:07:08;;;;;;;24.08;13.15;;;;;;;1.32;69.72;91104.19;2048571;70;20145;-80
2024/01/17 09:09:33;;;;;;;30.23;14.90;;;;;;;1.42;68.59;91104.13;2048335;70;20242;-80
2024/01/17 09:12:01;;;;;;;20.65;10.68;;;;;;;1.35;69.37;91097.47;2047986;70;20201;-78
2024/01/17 09:14:26;;;;;;;17.00;9.55;;;;;;;1.59;67.58;91087.28;2048119;70;20151;-79
2024/01/17 09:16:53;;;;;;;18.90;9.48;;;;;;;1.42;69.08;91095.81;2047651;70;20142;-80
2024/01/17 09:19:22;;;;;;;19.10;9.30;;;;;;;1.47;68.92;91092.03;2048322;70;20146;-79
2024/01/17 09:21:53;;;;;;;19.20;9.55;;;;;;;1.68;67.41;91083.72;2048158;70;20150;-81
2024/01/17 09:24:22;;;;;;;31.35;15.32;;;;;;;1.58;68.01;91083.06;2044870;70;20193;-79
2024/01/17 09:26:51;;;;;;;27.25;12.27;;;;;;;1.62;68.27;91074.28;2048134;70;20239;-82
2024/01/17 09:29:17;;;;;;;26.75;13.18;;;;;;;1.71;67.93;91079.03;2048233;70;20130;-80
2024/01/17 09:31:44;;;;;;;30.45;13.95;;;;;;;1.56;68.26;91082.94;2042426;70;20135;-78
2024/01/17 09:34:10;;;;;;;25.38;14.07;;;;;;;1.78;67.61;91078.13;2048543;70;20292;-80
2024/01/17 09:36:35;;;;;;;29.23;14.48;;;;;;;1.75;67.23;91082.81;2048091;70;20233;-78
2024/01/17 09:39:01;;;;;;;26.15;12.32;;;;;;;1.81;67.73;91090.09;2048825;70;20228;-79
2024/01/17 09:41:27;;;;;;;17.83;9.90;;;;;;;1.39;68.90;91086.66;2044646;70;20198;-80
2024/01/17 09:43:53;;;;;;;18.67;9.82;;;;;;;1.17;70.01;91083.09;2045308;70;20246;-83
2024/01/17 09:46:19;;;;;;;24.23;10.65;;;;;;;1.32;69.82;91092.38;2048397;70;20603;-84
2024/01/17 09:48:45;;;;;;;21.95;9.48;;;;;;;1.76;67.65;91081.50;2048204;70;20135;-82
2024/01/17 09:51:18;;;;;;;20.00;9.48;;;;;;;1.93;67.20;91080.53;2048141;70;20591;-78
2024/01/17 09:53:48;;;;;;;18.23;9.80;;;;;;;1.94;67.24;91067.38;2047466;70;20143;-82
2024/01/17 09:56:16;;;;;;;15.80;9.55;;;;;;;2.03;67.69;91075.63;2047865;70;20519;-79
2024/01/17 09:58:45;;;;;;;20.33;10.05;;;;;;;2.09;66.53;91064.19;2048141;70;20230;-80
2024/01/17 10:01:15;;;;;;;20.63;10.23;;;;;;;2.17;66.64;91063.97;2047479;70;20154;-80
2024/01/17 10:03:47;;;;;;;28.63;13.68;;;;;;;1.60;68.18;91055.44;2047999;70;20197;-81
2024/01/17 10:06:16;;;;;;;26.52;13.18;;;;;;;1.80;68.05;91044.25;2048077;70;20335;-80
2024/01/17 10:08:43;;;;;;;34.88;14.48;;;;;;;1.99;67.60;91053.16;2047943;70;20214;-81
2024/01/17 10:11:10;;;;;;;24.08;11.30;;;;;;;2.17;66.63;91036.94;2047841;70;20147;-79
2024/01/17 10:13:37;;;;;;;26.25;12.30;;;;;;;2.31;66.86;91033.63;2047553;70;20147;-81
2024/01/17 10:16:04;;;;;;;30.77;15.48;;;;;;;1.89;67.97;91008.09;2047210;70;20177;-79
2024/01/17 10:18:31;;;;;;;43.97;20.63;;;;;;;1.89;68.63;91007.38;2047955;70;20174;-81
2024/01/17 10:20:58;;;;;;;76.65;35.58;;;;;;;1.94;68.78;90993.16;2047962;70;20155;-80
2024/01/17 10:23:24;;;;;;;71.18;31.40;;;;;;;2.18;67.82;91007.13;2047925;70;20592;-81
2024/01/17 10:25:51;;;;;;;67.50;30.85;;;;;;;2.31;67.42;91006.56;2047811;70;20135;-81
2024/01/17 10:28:17;;;;;;;61.53;29.38;;;;;;;2.41;66.96;90993.31;2047367;70;20147;-81
2024/01/17 10:30:43;;;;;;;24.08;12.38;;;;;;;2.03;68.06;91002.72;2047927;70;20145;-80
2024/01/17 10:33:09;;;;;;;26.98;12.40;;;;;;;2.44;66.57;90996.97;2048014;70;20150;-83
2024/01/17 10:35:35;;;;;;;26.27;12.77;;;;;;;2.67;66.46;91010.19;2048085;70;20230;-81
2024/01/17 10:38:02;;;;;;;34.60;15.85;;;;;;;2.72;66.02;91009.81;2047965;70;20537;-80
2024/01/17 10:40:30;;;;;;;43.28;19.50;;;;;;;2.83;66.43;90991.00;2047880;70;20131;-79
2024/01/17 10:43:09;;;;;;;40.95;19.27;;;;;;;2.46;67.26;90975.59;2047750;70;20170;-80
2024/01/17 10:45:40;;;;;;;38.58;18.52;;;;;;;2.84;66.12;90972.97;2047962;70;20150;-79
2024/01/17 10:48:07;;;;;;;25.73;13.80;;;;;;;2.90;65.64;90979.66;2047177;70;20650;-79
2024/01/17 10:50:33;;;;;;;51.22;22.88;;;;;;;3.03;65.42;90979.06;2047874;70;20143;-79
2024/01/17 10:53:06;;;;;;;44.58;21.38;;;;;;;3.27;65.32;90963.09;2048126;70;20213;-79
2024/01/17 10:55:35;;;;;;;43.03;20.05;;;;;;;3.52;65.49;90965.22;2048184;70;20579;-76
2024/01/17 10:58:07;;;;;;;41.38;18.90;;;;;;;3.55;65.79;90958.44;2048358;70;20641;-81
2024/01/17 11:00:37;;;;;;;46.70;21.75;;;;;;;4.01;64.53;90948.50;2048391;70;20159;-79
2024/01/17 11:03:08;;;;;;;34.63;17.65;;;;;;;3.91;64.97;90942.38;2048545;70;20146;-78
2024/01/17 11:05:49;;;;;;;25.95;13.48;;;;;;;4.22;63.48;90950.38;2048404;70;20151;-78
2024/01/17 11:08:16;;;;;;;25.73;12.48;;;;;;;4.25;63.40;90954.00;2048428;70;20228;-80
2024/01/17 11:10:44;;;;;;;26.63;12.23;;;;;;;4.34;62.09;90941.94;2048194;70;20138;-83
2024/01/17 11:13:13;;;;;;;32.17;15.50;;;;;;;4.17;62.57;90936.81;2048400;70;20170;-80
2024/01/17 11:15:40;;;;;;;45.45;23.92;;;;;;;4.36;62.35;90939.28;2047750;70;20131;-81
2024/01/17 11:18:09;;;;;;;47.53;23.17;;;;;;;4.63;62.14;90913.56;2048342;70;20139;-81
2024/01/17 11:20:37;;;;;;;43.05;21.70;;;;;;;4.68;61.67;90897.78;2047795;70;20174;-80
2024/01/17 11:23:07;;;;;;;44.90;19.38;;;;;;;4.91;61.56;90894.84;2048290;70;20229;-80